PORTS® Data Listing: 8447386 Fall River, MA

CO-OPS RAW PORTS DATA

************************      PRELIMINARY DATA      ************************** 

     THIS RAW DATA HAS NOT BEEN SUBJECT TO THE NATIONAL OCEAN SERVICE'S        
     QUALITY CONTROL OR QUALITY ASSURANCE PROCEDURES AND DOES NOT MEET         
     THE CRITERIA AND STANDARDS OF OFFICIAL NATIONAL OCEAN SERVICE             
     DATA.  IT IS RELEASED FOR LIMITED PUBLIC USE AS PRELIMINARY DATA TO       
     BE USED ONLY WITH APPROPRIATE CAUTION.                                    

************************      PRELIMINARY DATA      ************************** 


       CD   -   Calendar date
       T    -   Time
       TZ   -   Timezone
       PW   -   Predicted water level (feet above MLLW)
       OW   -   Observed water level (feet above MLLW)
       WS   -   Wind speed (knots)
       WD   -   Wind direction (degrees true)
       WG   -   Wind gust (knots)
       AT   -   Air temperature (degrees farenheit)
       WT   -   Water temperature (degrees farenheit)
       AP   -   Air pressure (millibars)
       SA   -   Salinty (PSU - Practical Salinity Units)
       SG   -   Specific gravity
       RH   -   Relative humidity
       AG   -   Air gap (feet)
       VI   -   Visibility (nautical miles)

       ** NOTE **
       A variable that has its data fields filled with "9"s, indicates that
       data was not collected for that sample period.
       **********


STATION NAME: Fall River (8447386)
****************************************************************************************************
    CD       T    TZ    PW     OW    WS   WD   WG    AT    WT    AP    SA    SG     RH    AG   VI
****************************************************************************************************
2019/10/17 11:54 EDT    4.26   5.04 -999 -999 -999  56.1  60.1  985.7 33.1  1.025 -99.9 -99.99 -9.99
2019/10/17 12:00 EDT    4.18   4.90 -999 -999 -999  56.1  60.1  985.7 33.1  1.025 -99.9 -99.99 -9.99
2019/10/17 12:06 EDT    4.10   4.81 -999 -999 -999  56.3  60.1  985.6 33.1  1.025 -99.9 -99.99 -9.99
2019/10/17 12:12 EDT    4.01   4.71 -999 -999 -999  56.7  60.1  985.7 33.1  1.025 -99.9 -99.99 -9.99
2019/10/17 12:18 EDT    3.91   4.58 -999 -999 -999  56.7  60.1  985.7 33.1  1.025 -99.9 -99.99 -9.99
2019/10/17 12:24 EDT    3.81   4.44 -999 -999 -999  56.8  60.1  985.6 33.1  1.025 -99.9 -99.99 -9.99
2019/10/17 12:30 EDT    3.71   4.33 -999 -999 -999  56.7  60.1  985.6 33.1  1.025 -99.9 -99.99 -9.99
2019/10/17 12:36 EDT    3.60   4.24 -999 -999 -999  56.7  60.1  985.6 33.1  1.025 -99.9 -99.99 -9.99
2019/10/17 12:42 EDT    3.49   4.13 -999 -999 -999  56.7  60.1  985.7 33.1  1.025 -99.9 -99.99 -9.99
2019/10/17 12:48 EDT    3.38   3.98 -999 -999 -999  56.7  60.1  985.7 33.0  1.025 -99.9 -99.99 -9.99
2019/10/17 12:54 EDT    3.26   3.85 -999 -999 -999  56.8  60.1  985.8 33.0  1.025 -99.9 -99.99 -9.99
2019/10/17 13:00 EDT    3.15   3.75 -999 -999 -999  56.7  60.1  985.8 33.0  1.025 -99.9 -99.99 -9.99
2019/10/17 13:06 EDT    3.03   3.64 -999 -999 -999  57.0  60.1  985.6 33.0  1.025 -99.9 -99.99 -9.99
2019/10/17 13:12 EDT    2.91   3.53 -999 -999 -999  57.2  60.1  985.7 33.0  1.025 -99.9 -99.99 -9.99
2019/10/17 13:18 EDT    2.79   3.47 -999 -999 -999  57.0  60.1  985.7 33.0  1.025 -99.9 -99.99 -9.99
2019/10/17 13:24 EDT    2.67   3.39 -999 -999 -999  57.0  60.1  985.8 33.0  1.025 -99.9 -99.99 -9.99
2019/10/17 13:30 EDT    2.55   3.27 -999 -999 -999  56.8  60.1  985.9 32.9  1.025 -99.9 -99.99 -9.99
2019/10/17 13:36 EDT    2.43   3.14 -999 -999 -999  56.8  60.1  985.8 32.9  1.025 -99.9 -99.99 -9.99
2019/10/17 13:42 EDT    2.32   3.06 -999 -999 -999  56.7  59.9  986.1 33.0  1.025 -99.9 -99.99 -9.99
2019/10/17 13:48 EDT    2.20   2.96 -999 -999 -999  56.7  60.1  985.8 32.9  1.025 -99.9 -99.99 -9.99
2019/10/17 13:54 EDT    2.09   2.80 -999 -999 -999  56.7  59.9  985.9 33.0  1.025 -99.9 -99.99 -9.99
2019/10/17 14:00 EDT    1.98   2.65 -999 -999 -999  56.7  59.9  986.0 33.0  1.025 -99.9 -99.99 -9.99
2019/10/17 14:06 EDT    1.87   2.53 -999 -999 -999  56.7  59.9  986.0 33.0  1.025 -99.9 -99.99 -9.99
2019/10/17 14:12 EDT    1.76   2.41 -999 -999 -999  56.5  59.9  986.1 32.9  1.025 -99.9 -99.99 -9.99
2019/10/17 14:18 EDT    1.66   2.32 -999 -999 -999  56.7  59.9  986.1 32.9  1.025 -99.9 -99.99 -9.99
2019/10/17 14:24 EDT    1.55   2.22 -999 -999 -999  56.5  59.9  986.1 32.8  1.025 -99.9 -99.99 -9.99
2019/10/17 14:30 EDT    1.46   2.13 -999 -999 -999  56.5  59.9  986.2 32.8  1.025 -99.9 -99.99 -9.99
2019/10/17 14:36 EDT    1.36   2.05 -999 -999 -999  56.7  59.9  986.1 32.8  1.025 -99.9 -99.99 -9.99
2019/10/17 14:42 EDT    1.27   1.99 -999 -999 -999  56.5  59.9  986.4 32.7  1.025 -99.9 -99.99 -9.99
2019/10/17 14:48 EDT    1.18   1.88 -999 -999 -999  56.1  59.9  986.5 32.7  1.025 -99.9 -99.99 -9.99
2019/10/17 14:54 EDT    1.09   1.80 -999 -999 -999  56.1  59.9  986.6 32.8  1.025 -99.9 -99.99 -9.99
2019/10/17 15:00 EDT    1.01   1.74 -999 -999 -999  56.1  59.9  986.7 32.8  1.025 -99.9 -99.99 -9.99
2019/10/17 15:06 EDT    0.93   1.66 -999 -999 -999  55.9  59.9  986.8 -9.9 -9.999 -99.9 -99.99 -9.99
2019/10/17 15:12 EDT    0.86   1.55 -999 -999 -999  56.3  59.9  986.8 -9.9 -9.999 -99.9 -99.99 -9.99
2019/10/17 15:18 EDT    0.79   1.48 -999 -999 -999  56.3  59.9  986.9 32.8  1.025 -99.9 -99.99 -9.99
2019/10/17 15:24 EDT    0.72   1.42 -999 -999 -999  56.3  59.9  987.1 32.8  1.025 -99.9 -99.99 -9.99
2019/10/17 15:30 EDT    0.66   1.35 -999 -999 -999  56.3  59.7  987.1 32.7  1.025 -99.9 -99.99 -9.99
2019/10/17 15:36 EDT    0.61   1.25 -999 -999 -999  56.5  59.7  987.2 32.8  1.025 -99.9 -99.99 -9.99
2019/10/17 15:42 EDT    0.56   1.18 -999 -999 -999  56.3  59.7  987.5 32.7  1.025 -99.9 -99.99 -9.99
2019/10/17 15:48 EDT    0.51   1.12 -999 -999 -999  55.9  59.7  987.6 32.7  1.025 -99.9 -99.99 -9.99
2019/10/17 15:54 EDT    0.47   1.03 -999 -999 -999  55.9  59.7  987.8 32.7  1.025 -99.9 -99.99 -9.99
2019/10/17 16:00 EDT    0.43   0.94 -999 -999 -999  55.0  59.7  988.3 32.6  1.025 -99.9 -99.99 -9.99
2019/10/17 16:06 EDT    0.40   0.86 -999 -999 -999  54.0  59.7  988.7 32.6  1.025 -99.9 -99.99 -9.99
2019/10/17 16:12 EDT    0.38   0.84 -999 -999 -999  54.3  59.7  988.5 32.7  1.025 -99.9 -99.99 -9.99
2019/10/17 16:18 EDT    0.36   0.80 -999 -999 -999  54.3  59.7  988.6 32.7  1.025 -99.9 -99.99 -9.99
2019/10/17 16:24 EDT    0.35   0.74 -999 -999 -999  54.3  59.7  988.7 32.7  1.025 -99.9 -99.99 -9.99
2019/10/17 16:30 EDT    0.34   0.73 -999 -999 -999  54.3  59.7  988.8 32.7  1.025 -99.9 -99.99 -9.99
2019/10/17 16:36 EDT    0.34   0.68 -999 -999 -999  54.5  59.7  988.9 32.7  1.025 -99.9 -99.99 -9.99
2019/10/17 16:42 EDT    0.35   0.63 -999 -999 -999  54.3  59.7  989.2 32.7  1.025 -99.9 -99.99 -9.99
2019/10/17 16:48 EDT    0.36   0.60 -999 -999 -999  54.7  59.7  989.1 32.6  1.025 -99.9 -99.99 -9.99
2019/10/17 16:54 EDT    0.38   0.56 -999 -999 -999  54.9  59.7  989.3 32.6  1.025 -99.9 -99.99 -9.99
2019/10/17 17:00 EDT    0.40   0.56 -999 -999 -999  54.9  59.7  989.5 32.6  1.025 -99.9 -99.99 -9.99
2019/10/17 17:06 EDT    0.43   0.55 -999 -999 -999  55.0  59.7  989.4 32.6  1.025 -99.9 -99.99 -9.99
2019/10/17 17:12 EDT    0.46   0.49 -999 -999 -999  54.9  59.7  989.5 32.6  1.025 -99.9 -99.99 -9.99
2019/10/17 17:18 EDT    0.50   0.46 -999 -999 -999  55.0  59.5  989.6 32.7  1.025 -99.9 -99.99 -9.99
2019/10/17 17:24 EDT    0.54   0.46 -999 -999 -999  54.9  59.5  989.7 32.7  1.025 -99.9 -99.99 -9.99
2019/10/17 17:30 EDT    0.59   0.53 -999 -999 -999  54.9  59.5  990.0 32.7  1.025 -99.9 -99.99 -9.99
2019/10/17 17:36 EDT    0.64   0.59 -999 -999 -999  54.5  59.5  990.2 32.7  1.025 -99.9 -99.99 -9.99
2019/10/17 17:42 EDT    0.69   0.60 -999 -999 -999  54.7  59.5  990.2 32.6  1.025 -99.9 -99.99 -9.99
2019/10/17 17:48 EDT    0.75   0.62 -999 -999 -999  54.1  59.5  990.4 32.6  1.025 -99.9 -99.99 -9.99
2019/10/17 17:54 EDT    0.81   0.68 -999 -999 -999  54.3  59.5  990.4 32.7  1.025 -99.9 -99.99 -9.99
2019/10/17 18:00 EDT    0.87   0.74 -999 -999 -999  54.3  59.5  990.4 28.8  1.022 -99.9 -99.99 -9.99
2019/10/17 18:06 EDT    0.93   0.76 -999 -999 -999  54.0  59.5  990.5 23.4  1.018 -99.9 -99.99 -9.99
2019/10/17 18:12 EDT    1.00   0.83 -999 -999 -999  54.1  59.5  990.6 23.7  1.018 -99.9 -99.99 -9.99
2019/10/17 18:18 EDT    1.06   0.91 -999 -999 -999  53.8  59.5  990.8 23.6  1.018 -99.9 -99.99 -9.99
2019/10/17 18:24 EDT    1.13   0.97 -999 -999 -999  54.0  59.5  990.8 23.5  1.018 -99.9 -99.99 -9.99
2019/10/17 18:30 EDT    1.19   1.02 -999 -999 -999  54.3  59.5  991.0 23.5  1.018 -99.9 -99.99 -9.99
2019/10/17 18:36 EDT    1.26   1.10 -999 -999 -999  54.1  59.5  991.1 23.5  1.018 -99.9 -99.99 -9.99
2019/10/17 18:42 EDT    1.32   1.19 -999 -999 -999  53.8  59.4  991.3 23.5  1.018 -99.9 -99.99 -9.99
2019/10/17 18:48 EDT    1.38   1.28 -999 -999 -999  54.1  59.4  991.4 23.6  1.018 -99.9 -99.99 -9.99
2019/10/17 18:54 EDT    1.45 -99.99 -999 -999 -999 -99.9 -99.9 -999.9 -9.9 -9.999 -99.9 -99.99 -9.99
2019/10/17 19:00 EDT    1.51   1.36 -999 -999 -999 -99.9 -99.9 -999.9 -9.9 -9.999 -99.9 -99.99 -9.99
2019/10/17 19:06 EDT    1.57   1.44 -999 -999 -999  53.8  59.4  991.9 23.6  1.018 -99.9 -99.99 -9.99
2019/10/17 19:12 EDT    1.62   1.50 -999 -999 -999  54.0  59.4  992.0 23.5  1.018 -99.9 -99.99 -9.99
2019/10/17 19:18 EDT    1.68   1.53 -999 -999 -999  53.6  59.2  992.2 23.9  1.018 -99.9 -99.99 -9.99
2019/10/17 19:24 EDT    1.74   1.58 -999 -999 -999  54.0  59.2  992.2 23.7  1.018 -99.9 -99.99 -9.99
2019/10/17 19:30 EDT    1.79   1.63 -999 -999 -999  54.1  59.2  992.4 23.8  1.018 -99.9 -99.99 -9.99
2019/10/17 19:36 EDT    1.84   1.69 -999 -999 -999 -99.9 -99.9 -999.9 -9.9 -9.999 -99.9 -99.99 -9.99
2019/10/17 19:42 EDT    1.89   1.74 -999 -999 -999  54.0  59.4  992.6 23.4  1.018 -99.9 -99.99 -9.99
2019/10/17 19:48 EDT    1.95   1.81 -999 -999 -999  53.6  59.4  992.7 23.4  1.018 -99.9 -99.99 -9.99
2019/10/17 19:54 EDT    2.00   1.88 -999 -999 -999  53.8  59.4  992.8 23.4  1.018 -99.9 -99.99 -9.99
2019/10/17 20:00 EDT    2.05   1.95 -999 -999 -999  54.1  59.4  992.9 23.5  1.018 -99.9 -99.99 -9.99
2019/10/17 20:06 EDT    2.10   1.99 -999 -999 -999  54.1  59.4  992.9 23.5  1.018 -99.9 -99.99 -9.99
2019/10/17 20:12 EDT    2.15   2.05 -999 -999 -999  54.0  59.4  993.1 23.4  1.018 -99.9 -99.99 -9.99
2019/10/17 20:18 EDT    2.21   2.13 -999 -999 -999  54.1  59.2  993.3 23.6  1.018 -99.9 -99.99 -9.99
2019/10/17 20:24 EDT    2.26   2.20 -999 -999 -999  54.1  59.2  993.3 23.5  1.018 -99.9 -99.99 -9.99
2019/10/17 20:30 EDT    2.32   2.27 -999 -999 -999  54.1  59.2  993.4 23.3  1.018 -99.9 -99.99 -9.99
2019/10/17 20:36 EDT    2.37   2.37 -999 -999 -999  54.0  59.2  993.6 23.4  1.018 -99.9 -99.99 -9.99
2019/10/17 20:42 EDT    2.43   2.46 -999 -999 -999  54.0  59.4  993.7 23.3  1.018 -99.9 -99.99 -9.99
2019/10/17 20:48 EDT    2.50   2.53 -999 -999 -999  54.0  59.4  993.9 23.4  1.018 -99.9 -99.99 -9.99
2019/10/17 20:54 EDT    2.56   2.60 -999 -999 -999  54.0  59.4  994.0 23.8  1.018 -99.9 -99.99 -9.99
2019/10/17 21:00 EDT    2.63   2.66 -999 -999 -999  54.0  59.2  994.0 23.7  1.018 -99.9 -99.99 -9.99
2019/10/17 21:06 EDT    2.70   2.71 -999 -999 -999  54.0  59.2  994.2 23.7  1.018 -99.9 -99.99 -9.99
2019/10/17 21:12 EDT    2.77   2.79 -999 -999 -999  54.0  59.2  994.4 23.5  1.018 -99.9 -99.99 -9.99
2019/10/17 21:18 EDT    2.84   2.88 -999 -999 -999  53.8  59.4  994.6 23.4  1.018 -99.9 -99.99 -9.99
2019/10/17 21:24 EDT    2.92   2.97 -999 -999 -999  54.1  59.2  994.7 23.4  1.018 -99.9 -99.99 -9.99
2019/10/17 21:30 EDT    3.00   3.08 -999 -999 -999  54.0  59.2  994.8 23.2  1.018 -99.9 -99.99 -9.99
2019/10/17 21:36 EDT    3.07   3.17 -999 -999 -999  54.0  59.2  994.8 23.1  1.018 -99.9 -99.99 -9.99
2019/10/17 21:42 EDT    3.15   3.25 -999 -999 -999  54.1  59.2  994.9 23.0  1.018 -99.9 -99.99 -9.99
2019/10/17 21:48 EDT    3.24   3.32 -999 -999 -999  54.0  59.2  995.0 23.1  1.018 -99.9 -99.99 -9.99
2019/10/17 21:54 EDT    3.32   3.41 -999 -999 -999  54.0  59.2  995.0 23.2  1.018 -99.9 -99.99 -9.99
2019/10/17 22:00 EDT    3.40   3.48 -999 -999 -999  54.0  59.2  995.1 23.5  1.018 -99.9 -99.99 -9.99
2019/10/17 22:06 EDT    3.48   3.58 -999 -999 -999  54.0  59.2  995.2 23.3  1.018 -99.9 -99.99 -9.99
2019/10/17 22:12 EDT    3.56   3.65 -999 -999 -999  54.0  59.0  995.3 23.4  1.018 -99.9 -99.99 -9.99
2019/10/17 22:18 EDT    3.63   3.73 -999 -999 -999  53.8  59.0  995.5 23.3  1.018 -99.9 -99.99 -9.99
2019/10/17 22:24 EDT    3.71   3.79 -999 -999 -999  54.3  59.2  995.7 23.4  1.018 -99.9 -99.99 -9.99
2019/10/17 22:30 EDT    3.77   3.86 -999 -999 -999  54.1  59.2  995.8 23.5  1.018 -99.9 -99.99 -9.99
2019/10/17 22:36 EDT    3.84   3.92 -999 -999 -999  54.1  59.2  995.9 23.6  1.018 -99.9 -99.99 -9.99
2019/10/17 22:42 EDT    3.90   3.98 -999 -999 -999  53.8  59.2  996.0 23.9  1.018 -99.9 -99.99 -9.99
2019/10/17 22:48 EDT    3.95   4.04 -999 -999 -999  53.6  59.2  996.2 23.6  1.018 -99.9 -99.99 -9.99
2019/10/17 22:54 EDT    4.00   4.09 -999 -999 -999  53.6  59.2  996.3 23.8  1.018 -99.9 -99.99 -9.99
2019/10/17 23:00 EDT    4.04   4.14 -999 -999 -999  53.4  59.2  996.4 23.6  1.018 -99.9 -99.99 -9.99
2019/10/17 23:06 EDT    4.08   4.18 -999 -999 -999  53.4  59.2  996.6 23.3  1.018 -99.9 -99.99 -9.99
2019/10/17 23:12 EDT    4.10   4.21 -999 -999 -999  53.6  59.0  996.7 23.2  1.018 -99.9 -99.99 -9.99
2019/10/17 23:18 EDT    4.12   4.22 -999 -999 -999  53.8  59.0  996.8 23.1  1.018 -99.9 -99.99 -9.99
2019/10/17 23:24 EDT    4.13   4.22 -999 -999 -999  53.8  59.0  996.8 23.4  1.018 -99.9 -99.99 -9.99
2019/10/17 23:30 EDT    4.13   4.21 -999 -999 -999  53.8  59.0  997.0 23.4  1.018 -99.9 -99.99 -9.99
2019/10/17 23:36 EDT    4.12   4.19 -999 -999 -999  54.0  59.0  997.2 23.4  1.018 -99.9 -99.99 -9.99
2019/10/17 23:42 EDT    4.11   4.17 -999 -999 -999  53.6  59.0  997.3 23.4  1.018 -99.9 -99.99 -9.99
2019/10/17 23:48 EDT    4.08   4.14 -999 -999 -999  53.8  59.2  997.4 23.4  1.018 -99.9 -99.99 -9.99
2019/10/17 23:54 EDT    4.04   4.09 -999 -999 -999  54.1  59.2  997.5 23.5  1.018 -99.9 -99.99 -9.99
2019/10/18 00:00 EDT    4.00   4.04 -999 -999 -999  53.8  59.2  997.6 23.5  1.018 -99.9 -99.99 -9.99
2019/10/18 00:06 EDT    3.95   3.98 -999 -999 -999  53.8  59.2  997.7 23.7  1.018 -99.9 -99.99 -9.99
2019/10/18 00:12 EDT    3.89   3.90 -999 -999 -999  53.6  59.2  997.7 23.8  1.018 -99.9 -99.99 -9.99
2019/10/18 00:18 EDT    3.82   3.82 -999 -999 -999  53.8  59.2  997.8 23.9  1.018 -99.9 -99.99 -9.99
2019/10/18 00:24 EDT    3.74   3.74 -999 -999 -999  53.6  59.2  997.9 23.5  1.018 -99.9 -99.99 -9.99
2019/10/18 00:30 EDT    3.66   3.67 -999 -999 -999  53.6  59.2  997.9 23.6  1.018 -99.9 -99.99 -9.99
2019/10/18 00:36 EDT    3.56   3.57 -999 -999 -999  53.8  59.2  998.1 23.9  1.018 -99.9 -99.99 -9.99
2019/10/18 00:42 EDT    3.47   3.47 -999 -999 -999  54.0  59.2  998.1 23.8  1.018 -99.9 -99.99 -9.99
2019/10/18 00:48 EDT    3.37   3.39 -999 -999 -999  53.8  59.2  998.2 23.9  1.018 -99.9 -99.99 -9.99
2019/10/18 00:54 EDT    3.26   3.30 -999 -999 -999  53.8  59.2  998.4 23.5  1.018 -99.9 -99.99 -9.99
2019/10/18 01:00 EDT    3.15   3.22 -999 -999 -999  53.8  59.2  998.4 24.0  1.018 -99.9 -99.99 -9.99
2019/10/18 01:06 EDT    3.03   3.13 -999 -999 -999  53.8  59.2  998.4 24.1  1.018 -99.9 -99.99 -9.99
2019/10/18 01:12 EDT    2.91   3.05 -999 -999 -999  53.4  59.2  998.5 24.1  1.018 -99.9 -99.99 -9.99
2019/10/18 01:18 EDT    2.79   2.96 -999 -999 -999  53.6  59.2  998.5 23.6  1.018 -99.9 -99.99 -9.99
2019/10/18 01:24 EDT    2.67   2.86 -999 -999 -999  53.6  59.2  998.6 23.8  1.018 -99.9 -99.99 -9.99
2019/10/18 01:30 EDT    2.55   2.76 -999 -999 -999  53.6  59.2  998.8 23.5  1.018 -99.9 -99.99 -9.99
2019/10/18 01:36 EDT    2.42   2.67 -999 -999 -999  53.4  59.2  998.9 23.7  1.018 -99.9 -99.99 -9.99
2019/10/18 01:42 EDT    2.30   2.57 -999 -999 -999  53.6  58.6  998.9 23.5  1.018 -99.9 -99.99 -9.99
2019/10/18 01:48 EDT    2.17   2.44 -999 -999 -999  53.6  58.6  999.1 23.2  1.018 -99.9 -99.99 -9.99
2019/10/18 01:54 EDT    2.05   2.33 -999 -999 -999  53.4  58.6  999.2 23.2  1.018 -99.9 -99.99 -9.99
2019/10/18 02:00 EDT    1.93   2.22 -999 -999 -999  53.2  58.6  999.2 23.7  1.018 -99.9 -99.99 -9.99
2019/10/18 02:06 EDT    1.81   2.10 -999 -999 -999  53.4  58.6  999.3 23.7  1.018 -99.9 -99.99 -9.99
2019/10/18 02:12 EDT    1.69   1.97 -999 -999 -999  52.9  58.6  999.4 23.9  1.018 -99.9 -99.99 -9.99
2019/10/18 02:18 EDT    1.57   1.84 -999 -999 -999  53.2  58.6  999.4 23.6  1.018 -99.9 -99.99 -9.99
2019/10/18 02:24 EDT    1.46   1.74 -999 -999 -999  53.4  59.0  999.5 23.9  1.018 -99.9 -99.99 -9.99
2019/10/18 02:30 EDT    1.35   1.63 -999 -999 -999  53.2  59.2  999.6 23.8  1.018 -99.9 -99.99 -9.99
2019/10/18 02:36 EDT    1.24   1.50 -999 -999 -999  52.9  58.5  999.6 23.4  1.018 -99.9 -99.99 -9.99
2019/10/18 02:42 EDT    1.14   1.38 -999 -999 -999  52.7  58.5  999.6 23.1  1.018 -99.9 -99.99 -9.99
2019/10/18 02:48 EDT    1.04   1.29 -999 -999 -999  53.1  58.6  999.7 23.5  1.018 -99.9 -99.99 -9.99
2019/10/18 02:54 EDT    0.94   1.19 -999 -999 -999  52.9  58.6  999.8 23.7  1.018 -99.9 -99.99 -9.99
2019/10/18 03:00 EDT    0.85   1.07 -999 -999 -999  53.2  58.6  999.9 23.8  1.018 -99.9 -99.99 -9.99
2019/10/18 03:06 EDT    0.76   0.95 -999 -999 -999  53.2  58.6 1000.0 23.8  1.018 -99.9 -99.99 -9.99
2019/10/18 03:12 EDT    0.68   0.85 -999 -999 -999  53.4  58.5 1000.0 23.4  1.018 -99.9 -99.99 -9.99
2019/10/18 03:18 EDT    0.60   0.76 -999 -999 -999  53.2  58.5 1000.1 23.5  1.018 -99.9 -99.99 -9.99
2019/10/18 03:24 EDT    0.53   0.67 -999 -999 -999  53.2  58.5 1000.1 23.6  1.018 -99.9 -99.99 -9.99
2019/10/18 03:30 EDT    0.47   0.58 -999 -999 -999  53.1  58.5 1000.2 23.7  1.018 -99.9 -99.99 -9.99
2019/10/18 03:36 EDT    0.40   0.52 -999 -999 -999  53.2  58.5 1000.2 23.3  1.018 -99.9 -99.99 -9.99
2019/10/18 03:42 EDT    0.35   0.47 -999 -999 -999  53.2  58.5 1000.2 23.5  1.018 -99.9 -99.99 -9.99
2019/10/18 03:48 EDT    0.30   0.43 -999 -999 -999  53.1  58.5 1000.3 23.6  1.018 -99.9 -99.99 -9.99
2019/10/18 03:54 EDT    0.26   0.37 -999 -999 -999  53.1  58.5 1000.4 23.4  1.018 -99.9 -99.99 -9.99
2019/10/18 04:00 EDT    0.22   0.33 -999 -999 -999  52.7  58.5 1000.5 23.6  1.018 -99.9 -99.99 -9.99
2019/10/18 04:06 EDT    0.19   0.29 -999 -999 -999  52.7  58.5 1000.6 23.5  1.018 -99.9 -99.99 -9.99
2019/10/18 04:12 EDT    0.16   0.28 -999 -999 -999  52.9  58.5 1000.7 23.2  1.018 -99.9 -99.99 -9.99
2019/10/18 04:18 EDT    0.15   0.26 -999 -999 -999  52.7  58.5 1000.8 23.4  1.018 -99.9 -99.99 -9.99
2019/10/18 04:24 EDT    0.14   0.24 -999 -999 -999  52.5  58.5 1000.9 23.2  1.018 -99.9 -99.99 -9.99
2019/10/18 04:30 EDT    0.13   0.25 -999 -999 -999  52.9  58.5 1000.9 23.5  1.018 -99.9 -99.99 -9.99
2019/10/18 04:36 EDT    0.13   0.27 -999 -999 -999  52.9  58.5 1000.8 23.2  1.018 -99.9 -99.99 -9.99
2019/10/18 04:42 EDT    0.15   0.26 -999 -999 -999  52.7  58.6 1000.8 23.2  1.018 -99.9 -99.99 -9.99
2019/10/18 04:48 EDT    0.16   0.25 -999 -999 -999  52.5  58.6 1001.0 23.1  1.018 -99.9 -99.99 -9.99
2019/10/18 04:54 EDT    0.19   0.29 -999 -999 -999  52.7  58.5 1001.1 23.4  1.018 -99.9 -99.99 -9.99
2019/10/18 05:00 EDT    0.22   0.37 -999 -999 -999  52.7  58.5 1001.2 23.1  1.018 -99.9 -99.99 -9.99
2019/10/18 05:06 EDT    0.26   0.43 -999 -999 -999  52.9  58.6 1001.4 23.1  1.018 -99.9 -99.99 -9.99
2019/10/18 05:12 EDT    0.30   0.50 -999 -999 -999  52.5  58.5 1001.5 23.1  1.018 -99.9 -99.99 -9.99
2019/10/18 05:18 EDT    0.35   0.58 -999 -999 -999  52.3  58.5 1001.6 22.9  1.018 -99.9 -99.99 -9.99
2019/10/18 05:24 EDT    0.41   0.69 -999 -999 -999  52.2  58.5 1001.8 23.0  1.018 -99.9 -99.99 -9.99
2019/10/18 05:30 EDT    0.48   0.78 -999 -999 -999  52.3  58.5 1001.9 22.6  1.017 -99.9 -99.99 -9.99
2019/10/18 05:36 EDT    0.55   0.86 -999 -999 -999  51.8  58.5 1002.0 22.6  1.017 -99.9 -99.99 -9.99
2019/10/18 05:42 EDT    0.62   0.98 -999 -999 -999  52.2  58.5 1002.2 22.6  1.017 -99.9 -99.99 -9.99
2019/10/18 05:48 EDT    0.70 -99.99 -999 -999 -999 -99.9 -99.9 -999.9 -9.9 -9.999 -99.9 -99.99 -9.99
2019/10/18 05:54 EDT    0.78 -99.99 -999 -999 -999 -99.9 -99.9 -999.9 -9.9 -9.999 -99.9 -99.99 -9.99
2019/10/18 06:00 EDT    0.87 -99.99 -999 -999 -999 -99.9 -99.9 -999.9 -9.9 -9.999 -99.9 -99.99 -9.99
2019/10/18 06:06 EDT    0.96 -99.99 -999 -999 -999 -99.9 -99.9 -999.9 -9.9 -9.999 -99.9 -99.99 -9.99
2019/10/18 06:12 EDT    1.05 -99.99 -999 -999 -999 -99.9 -99.9 -999.9 -9.9 -9.999 -99.9 -99.99 -9.99
2019/10/18 06:18 EDT    1.14 -99.99 -999 -999 -999 -99.9 -99.9 -999.9 -9.9 -9.999 -99.9 -99.99 -9.99
2019/10/18 06:24 EDT    1.24 -99.99 -999 -999 -999 -99.9 -99.9 -999.9 -9.9 -9.999 -99.9 -99.99 -9.99
2019/10/18 06:30 EDT    1.33 -99.99 -999 -999 -999 -99.9 -99.9 -999.9 -9.9 -9.999 -99.9 -99.99 -9.99
2019/10/18 06:36 EDT    1.43 -99.99 -999 -999 -999 -99.9 -99.9 -999.9 -9.9 -9.999 -99.9 -99.99 -9.99
2019/10/18 06:42 EDT    1.52 -99.99 -999 -999 -999 -99.9 -99.9 -999.9 -9.9 -9.999 -99.9 -99.99 -9.99
2019/10/18 06:48 EDT    1.62 -99.99 -999 -999 -999 -99.9 -99.9 -999.9 -9.9 -9.999 -99.9 -99.99 -9.99
2019/10/18 06:54 EDT    1.71 -99.99 -999 -999 -999 -99.9 -99.9 -999.9 -9.9 -9.999 -99.9 -99.99 -9.99
2019/10/18 07:00 EDT    1.80 -99.99 -999 -999 -999 -99.9 -99.9 -999.9 -9.9 -9.999 -99.9 -99.99 -9.99
2019/10/18 07:06 EDT    1.89 -99.99 -999 -999 -999 -99.9 -99.9 -999.9 -9.9 -9.999 -99.9 -99.99 -9.99
2019/10/18 07:12 EDT    1.98 -99.99 -999 -999 -999 -99.9 -99.9 -999.9 -9.9 -9.999 -99.9 -99.99 -9.99
2019/10/18 07:18 EDT    2.07 -99.99 -999 -999 -999 -99.9 -99.9 -999.9 -9.9 -9.999 -99.9 -99.99 -9.99
2019/10/18 07:24 EDT    2.15 -99.99 -999 -999 -999 -99.9 -99.9 -999.9 -9.9 -9.999 -99.9 -99.99 -9.99
2019/10/18 07:30 EDT    2.23 -99.99 -999 -999 -999 -99.9 -99.9 -999.9 -9.9 -9.999 -99.9 -99.99 -9.99
2019/10/18 07:36 EDT    2.30 -99.99 -999 -999 -999 -99.9 -99.9 -999.9 -9.9 -9.999 -99.9 -99.99 -9.99
2019/10/18 07:42 EDT    2.37 -99.99 -999 -999 -999 -99.9 -99.9 -999.9 -9.9 -9.999 -99.9 -99.99 -9.99
2019/10/18 07:48 EDT    2.44 -99.99 -999 -999 -999 -99.9 -99.9 -999.9 -9.9 -9.999 -99.9 -99.99 -9.99
2019/10/18 07:54 EDT    2.51 -99.99 -999 -999 -999 -99.9 -99.9 -999.9 -9.9 -9.999 -99.9 -99.99 -9.99
2019/10/18 08:00 EDT    2.57 -99.99 -999 -999 -999 -99.9 -99.9 -999.9 -9.9 -9.999 -99.9 -99.99 -9.99
2019/10/18 08:06 EDT    2.63 -99.99 -999 -999 -999 -99.9 -99.9 -999.9 -9.9 -9.999 -99.9 -99.99 -9.99
2019/10/18 08:12 EDT    2.69 -99.99 -999 -999 -999 -99.9 -99.9 -999.9 -9.9 -9.999 -99.9 -99.99 -9.99
2019/10/18 08:18 EDT    2.75 -99.99 -999 -999 -999 -99.9 -99.9 -999.9 -9.9 -9.999 -99.9 -99.99 -9.99
2019/10/18 08:24 EDT    2.80 -99.99 -999 -999 -999 -99.9 -99.9 -999.9 -9.9 -9.999 -99.9 -99.99 -9.99
2019/10/18 08:30 EDT    2.86 -99.99 -999 -999 -999 -99.9 -99.9 -999.9 -9.9 -9.999 -99.9 -99.99 -9.99
2019/10/18 08:36 EDT    2.91 -99.99 -999 -999 -999 -99.9 -99.9 -999.9 -9.9 -9.999 -99.9 -99.99 -9.99
2019/10/18 08:42 EDT    2.96 -99.99 -999 -999 -999 -99.9 -99.9 -999.9 -9.9 -9.999 -99.9 -99.99 -9.99
2019/10/18 08:48 EDT    3.02 -99.99 -999 -999 -999 -99.9 -99.9 -999.9 -9.9 -9.999 -99.9 -99.99 -9.99
2019/10/18 08:54 EDT    3.07 -99.99 -999 -999 -999 -99.9 -99.9 -999.9 -9.9 -9.999 -99.9 -99.99 -9.99
2019/10/18 09:00 EDT    3.12 -99.99 -999 -999 -999 -99.9 -99.9 -999.9 -9.9 -9.999 -99.9 -99.99 -9.99
2019/10/18 09:06 EDT    3.18 -99.99 -999 -999 -999 -99.9 -99.9 -999.9 -9.9 -9.999 -99.9 -99.99 -9.99
2019/10/18 09:12 EDT    3.23 -99.99 -999 -999 -999 -99.9 -99.9 -999.9 -9.9 -9.999 -99.9 -99.99 -9.99
2019/10/18 09:18 EDT    3.29 -99.99 -999 -999 -999 -99.9 -99.9 -999.9 -9.9 -9.999 -99.9 -99.99 -9.99
2019/10/18 09:24 EDT    3.35 -99.99 -999 -999 -999 -99.9 -99.9 -999.9 -9.9 -9.999 -99.9 -99.99 -9.99
2019/10/18 09:30 EDT    3.41 -99.99 -999 -999 -999 -99.9 -99.9 -999.9 -9.9 -9.999 -99.9 -99.99 -9.99
2019/10/18 09:36 EDT    3.47 -99.99 -999 -999 -999 -99.9 -99.9 -999.9 -9.9 -9.999 -99.9 -99.99 -9.99
2019/10/18 09:42 EDT    3.53 -99.99 -999 -999 -999 -99.9 -99.9 -999.9 -9.9 -9.999 -99.9 -99.99 -9.99
2019/10/18 09:48 EDT    3.59 -99.99 -999 -999 -999 -99.9 -99.9 -999.9 -9.9 -9.999 -99.9 -99.99 -9.99
2019/10/18 09:54 EDT    3.66 -99.99 -999 -999 -999 -99.9 -99.9 -999.9 -9.9 -9.999 -99.9 -99.99 -9.99
2019/10/18 10:00 EDT    3.72 -99.99 -999 -999 -999 -99.9 -99.9 -999.9 -9.9 -9.999 -99.9 -99.99 -9.99
2019/10/18 10:06 EDT    3.79 -99.99 -999 -999 -999 -99.9 -99.9 -999.9 -9.9 -9.999 -99.9 -99.99 -9.99
2019/10/18 10:12 EDT    3.86 -99.99 -999 -999 -999 -99.9 -99.9 -999.9 -9.9 -9.999 -99.9 -99.99 -9.99
2019/10/18 10:18 EDT    3.92 -99.99 -999 -999 -999 -99.9 -99.9 -999.9 -9.9 -9.999 -99.9 -99.99 -9.99
2019/10/18 10:24 EDT    3.99 -99.99 -999 -999 -999 -99.9 -99.9 -999.9 -9.9 -9.999 -99.9 -99.99 -9.99
2019/10/18 10:30 EDT    4.06 -99.99 -999 -999 -999 -99.9 -99.9 -999.9 -9.9 -9.999 -99.9 -99.99 -9.99
2019/10/18 10:36 EDT    4.12 -99.99 -999 -999 -999 -99.9 -99.9 -999.9 -9.9 -9.999 -99.9 -99.99 -9.99
2019/10/18 10:42 EDT    4.18 -99.99 -999 -999 -999 -99.9 -99.9 -999.9 -9.9 -9.999 -99.9 -99.99 -9.99
2019/10/18 10:48 EDT    4.24 -99.99 -999 -999 -999 -99.9 -99.9 -999.9 -9.9 -9.999 -99.9 -99.99 -9.99
2019/10/18 10:54 EDT    4.29 -99.99 -999 -999 -999 -99.9 -99.9 -999.9 -9.9 -9.999 -99.9 -99.99 -9.99
2019/10/18 11:00 EDT    4.34 -99.99 -999 -999 -999 -99.9 -99.9 -999.9 -9.9 -9.999 -99.9 -99.99 -9.99
2019/10/18 11:06 EDT    4.39 -99.99 -999 -999 -999 -99.9 -99.9 -999.9 -9.9 -9.999 -99.9 -99.99 -9.99
2019/10/18 11:12 EDT    4.43 -99.99 -999 -999 -999 -99.9 -99.9 -999.9 -9.9 -9.999 -99.9 -99.99 -9.99
2019/10/18 11:18 EDT    4.46 -99.99 -999 -999 -999 -99.9 -99.9 -999.9 -9.9 -9.999 -99.9 -99.99 -9.99
2019/10/18 11:24 EDT    4.49 -99.99 -999 -999 -999 -99.9 -99.9 -999.9 -9.9 -9.999 -99.9 -99.99 -9.99
2019/10/18 11:30 EDT    4.51 -99.99 -999 -999 -999 -99.9 -99.9 -999.9 -9.9 -9.999 -99.9 -99.99 -9.99
2019/10/18 11:36 EDT    4.52 -99.99 -999 -999 -999 -99.9 -99.9 -999.9 -9.9 -9.999 -99.9 -99.99 -9.99
2019/10/18 11:42 EDT    4.53 -99.99 -999 -999 -999 -99.9 -99.9 -999.9 -9.9 -9.999 -99.9 -99.99 -9.99
2019/10/18 11:48 EDT    4.53 -99.99 -999 -999 -999 -99.9 -99.9 -999.9 -9.9 -9.999 -99.9 -99.99 -9.99
2019/10/18 11:54 EDT    4.52 -99.99 -999 -999 -999 -99.9 -99.9 -999.9 -9.9 -9.999 -99.9 -99.99 -9.99